Time;durP1;ratioP1;P1;durP2;ratioP2;P2;SDS_P1;SDS_P2;PMS_P1;PMS_P2;Temp;Humidity;BMP_temperature;BMP_pressure;BME280_temperature;BME280_humidity;BME280_pressure;Samples;Min_cycle;Max_cycle;Signal;HPM_P1;HPM_P2
2021/09/19 00:04:56;;;;;;;0.90;0.70;;;24.60;47.00;28.60;93563.00;;;;10473537;28;45363;-69
2021/09/19 00:09:56;;;;;;;0.68;0.68;;;24.50;46.90;28.60;93566.00;;;;10473236;28;45284;-69
2021/09/19 00:14:57;;;;;;;0.77;0.70;;;24.50;47.00;28.60;93559.00;;;;10471730;28;76026;-69
2021/09/19 00:19:58;;;;;;;0.77;0.60;;;24.50;47.00;28.60;93551.00;;;;10472187;28;67978;-69
2021/09/19 00:25:00;;;;;;;0.80;0.70;;;24.50;47.00;28.60;93569.00;;;;10455495;28;74549;-69
2021/09/19 00:30:00;;;;;;;0.65;0.60;;;24.50;47.60;28.60;93561.00;;;;10472960;28;45476;-69
2021/09/19 00:35:02;;;;;;;0.70;0.60;;;24.50;46.90;28.60;93570.00;;;;10455239;28;63974;-69
2021/09/19 00:40:03;;;;;;;0.55;0.55;;;24.50;46.90;28.50;93578.00;;;;10472212;28;45647;-69
2021/09/19 00:45:10;;;;;;;1.13;0.80;;;24.50;46.80;28.60;93561.00;;;;10458982;28;55329;-69
2021/09/19 00:50:14;;;;;;;0.70;0.70;;;24.50;46.90;28.50;93551.00;;;;10479208;28;47422;-69
2021/09/19 00:55:17;;;;;;;0.80;0.70;;;24.50;46.80;28.50;93553.00;;;;10480321;28;54546;-70
2021/09/19 01:00:25;;;;;;;0.82;0.65;;;24.50;46.80;28.50;93541.00;;;;10477295;28;47090;-69
2021/09/19 01:05:26;;;;;;;0.90;0.68;;;24.50;46.80;28.50;93554.00;;;;10481914;28;45465;-69
2021/09/19 01:10:28;;;;;;;0.73;0.68;;;24.50;46.80;28.50;93539.00;;;;10464773;28;55550;-69
2021/09/19 01:15:30;;;;;;;0.90;0.80;;;24.50;46.70;28.50;93547.00;;;;10479933;28;50959;-69
2021/09/19 01:20:32;;;;;;;1.05;0.60;;;24.50;46.70;28.50;93538.00;;;;10478669;28;45612;-69
2021/09/19 01:25:34;;;;;;;0.63;0.60;;;24.50;46.60;28.50;93524.00;;;;10461327;28;47183;-69
2021/09/19 01:30:37;;;;;;;0.55;0.55;;;24.50;46.70;28.50;93519.00;;;;10477740;28;47434;-69
2021/09/19 01:35:37;;;;;;;0.85;0.70;;;24.50;46.60;28.50;93513.00;;;;10460812;28;47112;-71
2021/09/19 01:40:38;;;;;;;0.82;0.70;;;24.50;46.60;28.50;93507.00;;;;10461087;28;48123;-69
2021/09/19 01:45:40;;;;;;;0.73;0.60;;;24.50;46.60;28.50;93506.00;;;;10476387;28;75770;-69
2021/09/19 01:50:41;;;;;;;1.38;0.70;;;24.50;46.50;28.50;93500.00;;;;10477411;28;47142;-69
2021/09/19 01:55:41;;;;;;;0.82;0.60;;;24.40;46.40;28.50;93498.00;;;;10475738;28;75295;-69
2021/09/19 02:00:42;;;;;;;1.35;0.80;;;24.50;46.50;28.50;93484.00;;;;10459818;28;74034;-70
2021/09/19 02:05:43;;;;;;;0.77;0.60;;;24.50;46.50;28.50;93468.00;;;;10459126;28;63781;-70
2021/09/19 02:10:44;;;;;;;0.90;0.70;;;24.40;46.40;28.40;93469.00;;;;10476983;28;46217;-69
2021/09/19 02:15:45;;;;;;;1.10;0.68;;;24.40;46.40;28.40;93464.00;;;;10475708;28;74272;-69
2021/09/19 02:20:45;;;;;;;1.30;0.80;;;24.40;46.40;28.50;93462.00;;;;10476627;28;47543;-69
2021/09/19 02:25:47;;;;;;;0.65;0.55;;;24.40;46.30;28.40;93449.00;;;;10475429;28;74658;-69
2021/09/19 02:30:49;;;;;;;1.10;0.80;;;24.40;46.30;28.40;93447.00;;;;10459414;28;47309;-69
2021/09/19 02:35:50;;;;;;;0.68;0.60;;;24.40;46.30;28.40;93441.00;;;;10459206;28;46918;-69
2021/09/19 02:40:52;;;;;;;1.60;0.90;;;24.40;46.30;28.40;93454.00;;;;10476286;28;52399;-70
2021/09/19 02:45:53;;;;;;;0.93;0.70;;;24.40;46.30;28.40;93452.00;;;;10458779;28;47403;-70
2021/09/19 02:50:53;;;;;;;0.70;0.70;;;24.40;46.30;28.40;93461.00;;;;10476158;28;74171;-69
2021/09/19 02:55:54;;;;;;;1.00;0.70;;;24.40;46.30;28.40;93461.00;;;;10457215;28;75442;-70
2021/09/19 03:00:55;;;;;;;0.60;0.60;;;24.40;46.30;28.40;93463.00;;;;10475142;28;45317;-70
2021/09/19 03:05:56;;;;;;;0.70;0.60;;;24.40;46.20;28.40;93468.00;;;;10473971;28;74551;-69
2021/09/19 03:10:56;;;;;;;0.95;0.82;;;24.40;46.30;28.40;93477.00;;;;10458110;28;47018;-69
2021/09/19 03:15:57;;;;;;;0.88;0.70;;;24.40;46.30;28.40;93469.00;;;;10456686;28;69829;-69
2021/09/19 03:20:58;;;;;;;0.82;0.75;;;24.40;46.30;28.40;93464.00;;;;10473706;28;74471;-69
2021/09/19 03:25:59;;;;;;;0.75;0.63;;;24.40;46.30;28.40;93454.00;;;;10475552;28;57683;-69
2021/09/19 03:31:00;;;;;;;1.15;0.80;;;24.40;46.30;28.40;93451.00;;;;10473285;28;75456;-69
2021/09/19 03:36:01;;;;;;;1.00;0.70;;;24.40;46.30;28.40;93466.00;;;;10456524;28;51877;-69
2021/09/19 03:41:01;;;;;;;1.27;0.80;;;24.40;46.90;28.40;93477.00;;;;10456006;28;74482;-70
2021/09/19 03:46:02;;;;;;;1.00;0.60;;;24.40;46.20;28.40;93472.00;;;;10473161;28;45321;-69
2021/09/19 03:51:03;;;;;;;0.88;0.70;;;24.40;46.20;28.40;93465.00;;;;10473719;28;75891;-70
2021/09/19 03:56:04;;;;;;;0.75;0.60;;;24.40;46.20;28.40;93468.00;;;;10455402;28;74296;-69
2021/09/19 04:01:04;;;;;;;0.60;0.60;;;24.40;46.20;28.40;93459.00;;;;10455283;28;75465;-70
2021/09/19 04:06:05;;;;;;;0.65;0.63;;;24.40;46.20;28.40;93457.00;;;;10472240;28;74409;-69
2021/09/19 04:11:06;;;;;;;1.20;0.85;;;24.40;46.20;28.40;93477.00;;;;10457108;28;54106;-69
2021/09/19 04:16:06;;;;;;;0.93;0.65;;;24.40;46.20;28.40;93472.00;;;;10455301;28;62224;-69
2021/09/19 04:21:07;;;;;;;0.90;0.60;;;24.40;46.20;28.40;93488.00;;;;10480703;28;46277;-70
2021/09/19 04:26:08;;;;;;;0.90;0.70;;;24.40;46.20;28.40;93499.00;;;;10462619;28;53246;-70
2021/09/19 04:31:08;;;;;;;0.90;0.70;;;24.40;46.20;28.40;93504.00;;;;10478791;28;75311;-69
2021/09/19 04:36:09;;;;;;;0.65;0.65;;;24.40;46.20;28.40;93485.00;;;;10480161;28;75349;-69
2021/09/19 04:41:10;;;;;;;0.85;0.70;;;24.40;46.20;28.40;93472.00;;;;10481053;28;45432;-69
2021/09/19 04:46:10;;;;;;;0.80;0.60;;;24.40;46.20;28.40;93460.00;;;;10477715;28;74333;-69
2021/09/19 04:51:11;;;;;;;2.30;0.77;;;24.40;46.20;28.40;93486.00;;;;10479103;28;60379;-69
2021/09/19 04:56:12;;;;;;;0.77;0.70;;;24.40;46.20;28.40;93487.00;;;;10478837;28;75626;-69
2021/09/19 05:01:13;;;;;;;0.60;0.60;;;24.40;46.10;28.40;93538.00;;;;10479776;28;46348;-69
2021/09/19 05:06:13;;;;;;;1.27;0.68;;;24.30;46.10;28.40;93535.00;;;;10479594;28;45588;-69
2021/09/19 05:11:14;;;;;;;0.77;0.73;;;24.40;46.10;28.40;93516.00;;;;10479095;28;48829;-70
2021/09/19 05:16:15;;;;;;;0.82;0.70;;;24.30;46.10;28.40;93482.00;;;;10477685;28;75745;-69
2021/09/19 05:21:16;;;;;;;1.25;0.90;;;24.40;46.10;28.40;93479.00;;;;10477907;28;74517;-69
2021/09/19 05:26:16;;;;;;;1.02;0.70;;;24.30;46.00;28.40;93504.00;;;;10460990;28;47924;-70
2021/09/19 05:31:17;;;;;;;1.00;0.65;;;24.30;46.00;28.40;93498.00;;;;10476807;28;75729;-70
2021/09/19 05:36:18;;;;;;;0.70;0.70;;;24.40;46.00;28.40;93516.00;;;;10476335;28;75261;-69
2021/09/19 05:41:18;;;;;;;0.80;0.70;;;24.40;46.00;28.40;93529.00;;;;10478379;28;75412;-69
2021/09/19 05:46:19;;;;;;;1.08;0.80;;;24.30;46.60;28.40;93542.00;;;;10476460;28;67461;-69
2021/09/19 05:51:22;;;;;;;0.60;0.60;;;24.30;46.00;28.40;93562.00;;;;10476447;28;75758;-70
2021/09/19 05:56:23;;;;;;;1.02;0.70;;;24.30;46.00;28.40;93578.00;;;;10460593;28;47049;-69
2021/09/19 06:01:24;;;;;;;0.98;0.75;;;24.30;46.00;28.40;93560.00;;;;10476653;28;74228;-69
2021/09/19 06:06:24;;;;;;;0.90;0.70;;;24.40;46.00;28.40;93583.00;;;;10476472;28;74605;-69
2021/09/19 06:11:25;;;;;;;0.70;0.70;;;24.30;45.90;28.40;93593.00;;;;10475588;28;74608;-70
2021/09/19 06:16:26;;;;;;;0.73;0.68;;;24.30;45.90;28.40;93584.00;;;;10476871;28;45355;-69
2021/09/19 06:21:26;;;;;;;0.68;0.68;;;24.30;45.90;28.40;93588.00;;;;10475257;28;75379;-70
2021/09/19 06:26:27;;;;;;;0.98;0.70;;;24.30;45.90;28.40;93598.00;;;;10475337;28;75710;-69
2021/09/19 06:31:28;;;;;;;0.80;0.70;;;24.30;45.90;28.40;93597.00;;;;10475666;28;47074;-69
2021/09/19 06:36:29;;;;;;;0.88;0.70;;;24.30;45.90;28.40;93602.00;;;;10475814;28;45380;-69
2021/09/19 06:41:29;;;;;;;0.73;0.73;;;24.30;45.80;28.40;93605.00;;;;10477264;28;45316;-69
2021/09/19 06:46:31;;;;;;;1.33;0.70;;;24.30;45.80;28.40;93608.00;;;;10477303;28;74536;-69
2021/09/19 06:51:32;;;;;;;0.57;0.57;;;24.30;45.80;28.30;93610.00;;;;10477072;28;45509;-69
2021/09/19 06:56:32;;;;;;;0.65;0.57;;;24.30;45.80;28.30;93613.00;;;;10476347;28;75146;-69
2021/09/19 07:01:33;;;;;;;0.70;0.65;;;24.30;45.80;28.40;93621.00;;;;10458901;28;47980;-71
2021/09/19 07:06:34;;;;;;;0.80;0.80;;;24.30;46.50;28.40;93613.00;;;;10458466;28;73620;-69
2021/09/19 07:11:36;;;;;;;0.85;0.70;;;24.30;45.80;28.30;93608.00;;;;10475453;28;69080;-69
2021/09/19 07:16:37;;;;;;;0.70;0.70;;;24.30;45.90;28.40;93610.00;;;;10477089;28;45635;-69
2021/09/19 07:21:37;;;;;;;0.80;0.77;;;24.30;45.80;28.30;93595.00;;;;10474245;28;75372;-69
2021/09/19 07:26:38;;;;;;;1.63;0.68;;;24.30;45.90;28.30;93611.00;;;;10475179;28;73423;-74
2021/09/19 07:31:39;;;;;;;0.50;0.50;;;24.30;46.20;28.30;93597.00;;;;10474977;28;75949;-72
2021/09/19 07:36:40;;;;;;;0.80;0.70;;;24.30;46.20;28.30;93601.00;;;;10458224;28;47033;-68
2021/09/19 07:41:41;;;;;;;0.95;0.60;;;24.30;46.30;28.30;93598.00;;;;10457075;28;76256;-68
2021/09/19 07:46:42;;;;;;;0.73;0.60;;;24.30;46.40;28.30;93607.00;;;;10457413;28;47187;-67
2021/09/19 07:51:43;;;;;;;4.32;0.50;;;24.30;46.50;28.30;93617.00;;;;10474144;28;45609;-67
2021/09/19 07:56:44;;;;;;;0.57;0.50;;;24.20;46.50;28.30;93606.00;;;;10457785;28;48084;-68
2021/09/19 08:01:45;;;;;;;0.50;0.50;;;24.20;46.60;28.30;93622.00;;;;10473255;28;75048;-67
2021/09/19 08:06:46;;;;;;;0.40;0.40;;;24.20;46.60;28.30;93634.00;;;;10474437;28;45605;-67
2021/09/19 08:11:47;;;;;;;0.45;0.45;;;24.20;46.70;28.30;93639.00;;;;10457101;28;47681;-68
2021/09/19 08:16:48;;;;;;;0.98;0.50;;;24.20;46.80;28.30;93663.00;;;;10456303;28;74253;-67
2021/09/19 08:21:49;;;;;;;0.68;0.30;;;24.20;46.80;28.30;93653.00;;;;10456205;28;75758;-67
2021/09/19 08:26:50;;;;;;;0.20;0.20;;;24.10;46.70;28.20;93654.00;;;;10443720;28;45438;-68
2021/09/19 08:31:50;;;;;;;0.77;0.35;;;24.10;46.40;28.20;93667.00;;;;10415250;28;48105;-68
2021/09/19 08:36:51;;;;;;;1.60;0.32;;;24.10;46.70;28.30;93677.00;;;;10414085;28;72699;-67
2021/09/19 08:41:54;;;;;;;0.45;0.13;;;24.10;46.70;28.20;93657.00;;;;10431442;28;49529;-67
2021/09/19 08:46:56;;;;;;;0.75;0.20;;;24.20;46.70;28.30;93681.00;;;;10413682;28;73854;-68
2021/09/19 08:51:58;;;;;;;0.15;0.15;;;24.20;46.80;28.30;93677.00;;;;10413246;28;74411;-68
2021/09/19 08:56:59;;;;;;;0.90;0.28;;;24.20;46.80;28.30;93691.00;;;;10414056;28;69903;-68
2021/09/19 09:02:02;;;;;;;0.40;0.22;;;24.20;46.90;28.30;93694.00;;;;10413355;28;75240;-69
2021/09/19 09:07:04;;;;;;;0.80;0.20;;;24.20;46.90;28.30;93683.00;;;;10413925;28;46830;-68
2021/09/19 09:12:12;;;;;;;1.83;0.75;;;24.20;46.90;28.30;93689.00;;;;10438230;28;45382;-70
2021/09/19 09:17:26;;;;;;;0.15;0.15;;;24.20;47.00;28.40;93708.00;;;;10420788;28;47200;-70
2021/09/19 09:22:31;;;;;;;0.10;0.10;;;24.20;47.00;28.30;93703.00;;;;10437828;28;45383;-68
2021/09/19 09:27:43;;;;;;;0.32;0.20;;;24.30;47.70;28.30;93688.00;;;;10420662;28;45507;-71
2021/09/19 09:33:06;;;;;;;0.52;0.10;;;24.20;47.10;28.40;93696.00;;;;10438684;28;49239;-68
2021/09/19 09:38:24;;;;;;;0.45;0.20;;;24.20;47.10;28.40;93698.00;;;;10435878;28;63851;-68
2021/09/19 09:43:25;;;;;;;0.30;0.10;;;24.20;47.20;28.30;93681.00;;;;10437231;28;47478;-71
2021/09/19 09:48:38;;;;;;;0.30;0.20;;;24.20;47.20;28.30;93696.00;;;;10435608;28;74374;-68
2021/09/19 09:53:40;;;;;;;1.60;0.28;;;24.20;47.20;28.30;93689.00;;;;10437075;28;45246;-70
2021/09/19 09:58:41;;;;;;;1.40;0.30;;;24.20;47.20;28.30;93686.00;;;;10435557;28;75259;-70
2021/09/19 10:03:43;;;;;;;0.45;0.20;;;24.20;47.20;28.30;93669.00;;;;10435138;28;74434;-69
2021/09/19 10:08:44;;;;;;;2.25;0.20;;;24.20;47.50;28.30;93667.00;;;;10434198;28;75472;-70
2021/09/19 10:13:45;;;;;;;0.40;0.15;;;24.20;47.90;28.30;93668.00;;;;10435921;28;50576;-70
2021/09/19 10:18:48;;;;;;;0.38;0.10;;;24.20;47.30;28.30;93670.00;;;;10419307;28;47679;-70
2021/09/19 10:23:50;;;;;;;0.60;0.10;;;24.20;47.30;28.30;93675.00;;;;10436551;28;45377;-70
2021/09/19 10:28:53;;;;;;;0.28;0.10;;;24.20;47.30;28.30;93663.00;;;;10436549;28;63830;-71
2021/09/19 10:34:03;;;;;;;1.27;0.20;;;24.20;47.30;28.30;93673.00;;;;10436166;28;46282;-71
2021/09/19 10:39:12;;;;;;;0.85;0.10;;;24.20;47.30;28.30;93681.00;;;;10435794;28;47221;-71
2021/09/19 10:44:13;;;;;;;0.52;0.10;;;24.20;47.30;28.30;93669.00;;;;10434436;28;48515;-69
2021/09/19 10:49:21;;;;;;;0.10;0.00;;;24.20;47.40;28.30;93687.00;;;;10433596;28;74370;-71
2021/09/19 10:54:50;;;;;;;1.55;0.20;;;24.20;47.40;28.40;93682.00;;;;10434780;28;47079;-70
2021/09/19 11:00:17;;;;;;;0.15;0.15;;;24.20;47.40;28.40;93687.00;;;;10434661;28;46229;-69
2021/09/19 11:05:25;;;;;;;1.13;0.25;;;24.20;47.40;28.30;93678.00;;;;10434090;28;46955;-71
2021/09/19 11:10:30;;;;;;;0.82;0.32;;;24.20;47.50;28.30;93683.00;;;;10437447;28;45451;-70
2021/09/19 11:15:31;;;;;;;1.05;0.40;;;24.20;47.50;28.20;93680.00;;;;10431114;28;48158;-69
2021/09/19 11:20:33;;;;;;;1.17;0.50;;;24.20;47.50;28.30;93687.00;;;;10474944;28;75237;-69
2021/09/19 11:25:34;;;;;;;1.35;0.45;;;24.20;47.50;28.30;93691.00;;;;10457661;28;47282;-70
2021/09/19 11:30:35;;;;;;;1.13;0.40;;;24.20;47.50;28.20;93687.00;;;;10457181;28;58035;-70
2021/09/19 11:35:38;;;;;;;1.65;0.43;;;24.20;47.50;28.30;93687.00;;;;10474199;28;75654;-70
2021/09/19 11:40:39;;;;;;;0.98;0.40;;;24.20;47.50;28.30;93696.00;;;;10475044;28;45539;-70
2021/09/19 11:45:40;;;;;;;1.13;0.40;;;24.20;47.50;28.20;93694.00;;;;10473835;28;75319;-70
2021/09/19 11:50:42;;;;;;;1.60;0.40;;;24.20;47.50;28.30;93701.00;;;;10474580;28;46412;-70
2021/09/19 11:55:45;;;;;;;0.95;0.50;;;24.20;47.50;28.30;93693.00;;;;10476152;28;46252;-70
2021/09/19 12:00:56;;;;;;;0.50;0.22;;;24.20;47.50;28.30;93707.00;;;;10457618;28;47009;-70
2021/09/19 12:06:00;;;;;;;0.82;0.20;;;24.20;47.60;28.30;93690.00;;;;10457307;28;47133;-70
2021/09/19 12:11:03;;;;;;;0.43;0.30;;;24.20;47.60;28.30;93709.00;;;;10474578;28;46133;-70
2021/09/19 12:16:11;;;;;;;0.70;0.30;;;24.20;47.60;28.30;93688.00;;;;10473700;28;45359;-70
2021/09/19 12:21:21;;;;;;;0.90;0.30;;;24.20;47.60;28.30;93713.00;;;;10475214;28;45641;-69
2021/09/19 12:26:30;;;;;;;0.40;0.10;;;24.20;47.60;28.30;93703.00;;;;10432255;28;45633;-70
2021/09/19 12:31:48;;;;;;;0.90;0.30;;;24.20;47.60;28.30;93711.00;;;;10391053;28;47383;-69
2021/09/19 12:36:53;;;;;;;0.77;0.20;;;24.20;47.60;28.30;93708.00;;;;10419997;28;53851;-70
2021/09/19 12:41:58;;;;;;;0.93;0.30;;;24.20;47.60;28.30;93713.00;;;;10438858;28;46899;-70
2021/09/19 12:47:07;;;;;;;0.55;0.20;;;24.20;47.60;28.30;93709.00;;;;10420468;28;53983;-70
2021/09/19 12:52:16;;;;;;;0.28;0.15;;;24.20;47.60;28.30;93708.00;;;;10438743;28;45368;-70
2021/09/19 12:57:21;;;;;;;1.73;0.30;;;24.20;47.60;28.30;93705.00;;;;10438010;28;45577;-71
2021/09/19 13:02:23;;;;;;;0.75;0.15;;;24.20;47.70;28.30;93710.00;;;;10435888;28;46590;-69
2021/09/19 13:07:24;;;;;;;0.40;0.20;;;24.20;47.70;28.30;93707.00;;;;10433265;28;47276;-70
2021/09/19 13:12:25;;;;;;;0.55;0.20;;;24.20;47.70;28.30;93706.00;;;;10437563;28;47298;-70
2021/09/19 13:17:26;;;;;;;0.45;0.20;;;24.20;47.70;28.30;93704.00;;;;10437356;28;48015;-70
2021/09/19 13:22:26;;;;;;;0.52;0.20;;;24.20;47.60;28.30;93701.00;;;;10418971;28;74424;-70
2021/09/19 13:27:27;;;;;;;0.70;0.30;;;24.20;47.60;28.20;93711.00;;;;10417083;28;75488;-70
2021/09/19 13:32:28;;;;;;;0.38;0.15;;;24.20;47.70;28.30;93717.00;;;;10436066;28;73411;-64
2021/09/19 13:37:29;;;;;;;0.30;0.13;;;24.20;47.60;28.30;93717.00;;;;10434036;28;74925;-68
2021/09/19 13:42:29;;;;;;;0.20;0.20;;;24.20;47.60;28.30;93717.00;;;;10435627;28;75587;-70
2021/09/19 13:47:30;;;;;;;0.30;0.20;;;24.20;47.60;28.30;93727.00;;;;10435957;28;74035;-65
2021/09/19 13:52:31;;;;;;;2.05;0.20;;;24.10;47.60;28.20;93724.00;;;;10432980;28;74333;-65
2021/09/19 13:57:31;;;;;;;0.45;0.22;;;24.20;47.80;28.20;93714.00;;;;10436201;28;46966;-65
2021/09/19 14:02:33;;;;;;;0.68;0.20;;;24.20;47.80;28.20;93721.00;;;;10435057;28;68086;-64
2021/09/19 14:07:33;;;;;;;0.63;0.30;;;24.20;47.80;28.20;93732.00;;;;10435319;28;47401;-65
2021/09/19 14:12:34;;;;;;;0.50;0.10;;;24.10;47.80;28.20;93723.00;;;;10432439;28;47295;-66
2021/09/19 14:17:37;;;;;;;0.68;0.22;;;24.10;47.90;28.20;93744.00;;;;10429504;28;47978;-66
2021/09/19 14:22:38;;;;;;;0.70;0.28;;;24.10;47.80;28.20;93746.00;;;;10433374;28;57106;-65
2021/09/19 14:27:40;;;;;;;0.88;0.22;;;24.10;47.80;28.20;93741.00;;;;10434677;28;46423;-64
2021/09/19 14:32:42;;;;;;;0.55;0.20;;;24.10;47.80;28.10;93724.00;;;;10433372;28;46468;-67
2021/09/19 14:37:44;;;;;;;1.27;0.20;;;24.20;48.00;28.20;93727.00;;;;10436080;28;45553;-67
2021/09/19 14:42:44;;;;;;;0.25;0.20;;;24.20;48.20;28.20;93742.00;;;;10440648;28;46623;-67
2021/09/19 14:47:45;;;;;;;0.55;0.20;;;24.30;48.10;28.30;93746.00;;;;10430983;28;74311;-69
2021/09/19 14:52:48;;;;;;;1.98;0.10;;;24.30;48.30;28.30;93750.00;;;;10429681;28;46551;-66
2021/09/19 14:57:48;;;;;;;0.50;0.10;;;24.30;48.10;28.30;93759.00;;;;10431488;28;75482;-64
2021/09/19 15:02:49;;;;;;;0.75;0.17;;;24.30;48.20;28.40;93759.00;;;;10434272;28;75343;-70
2021/09/19 15:07:50;;;;;;;0.98;0.20;;;24.30;48.20;28.40;93756.00;;;;10419100;28;75337;-65
2021/09/19 15:12:50;;;;;;;0.57;0.10;;;24.30;48.20;28.40;93759.00;;;;10431835;28;75632;-64
2021/09/19 15:17:51;;;;;;;0.20;0.10;;;24.30;48.10;28.40;93757.00;;;;10427946;28;47027;-64
2021/09/19 15:22:52;;;;;;;1.00;0.20;;;24.40;48.20;28.40;93762.00;;;;10441473;28;45390;-62
2021/09/19 15:27:53;;;;;;;0.80;0.20;;;24.50;48.20;28.40;93759.00;;;;10398459;28;75614;-72
2021/09/19 15:32:53;;;;;;;1.65;0.10;;;24.50;48.10;28.50;93751.00;;;;10429863;28;75282;-64
2021/09/19 15:37:54;;;;;;;0.40;0.10;;;24.50;48.20;28.50;93765.00;;;;10429802;28;75666;-71
2021/09/19 15:42:55;;;;;;;0.73;0.10;;;24.50;48.20;28.50;93769.00;;;;10448274;28;73652;-64
2021/09/19 15:47:56;;;;;;;1.45;0.10;;;24.50;48.10;28.50;93771.00;;;;10420839;28;47621;-64
2021/09/19 15:52:57;;;;;;;0.10;0.10;;;24.50;48.00;28.50;93773.00;;;;10430435;28;47756;-63
2021/09/19 15:57:57;;;;;;;0.30;0.17;;;24.50;48.20;28.50;93765.00;;;;10430549;28;75413;-63
2021/09/19 16:02:59;;;;;;;3.08;1.05;;;24.50;48.10;28.50;93785.00;;;;10430994;28;45603;-63
2021/09/19 16:07:59;;;;;;;12.82;3.60;;;24.40;47.20;28.40;93773.00;;;;10430568;28;48556;-64
2021/09/19 16:13:00;;;;;;;16.70;5.97;;;24.40;47.30;28.40;93782.00;;;;10432489;28;47297;-73
2021/09/19 16:18:01;;;;;;;14.30;4.95;;;24.40;46.90;28.40;93785.00;;;;10470277;28;58234;-71
2021/09/19 16:23:02;;;;;;;13.85;4.95;;;24.40;47.40;28.40;93782.00;;;;10431282;28;75174;-72
2021/09/19 16:28:04;;;;;;;11.52;4.15;;;24.40;47.30;28.40;93787.00;;;;10425123;28;45379;-67
2021/09/19 16:33:06;;;;;;;10.55;3.88;;;24.40;47.40;28.50;93778.00;;;;10443136;28;48892;-64
2021/09/19 16:38:07;;;;;;;9.93;3.75;;;24.50;47.60;28.50;93785.00;;;;10448097;28;45419;-65
2021/09/19 16:43:09;;;;;;;7.53;2.85;;;24.40;47.50;28.50;93784.00;;;;10479605;28;45360;-68
2021/09/19 16:48:12;;;;;;;8.02;2.72;;;24.50;47.60;28.50;93796.00;;;;10428531;28;47023;-70
2021/09/19 16:53:16;;;;;;;8.52;2.40;;;24.50;47.70;28.60;93795.00;;;;10422706;28;47591;-67
2021/09/19 16:58:16;;;;;;;7.45;2.45;;;24.50;47.60;28.50;93790.00;;;;10438843;28;46608;-69
2021/09/19 17:03:17;;;;;;;6.03;2.10;;;24.50;47.70;28.60;93797.00;;;;10409620;28;75519;-64
2021/09/19 17:08:18;;;;;;;6.28;1.98;;;24.50;47.60;28.50;93800.00;;;;10394068;28;73855;-63
2021/09/19 17:13:20;;;;;;;6.65;1.77;;;24.50;47.70;28.60;93800.00;;;;10379128;28;47464;-64
2021/09/19 17:18:21;;;;;;;3.95;1.70;;;24.50;47.70;28.60;93806.00;;;;10395542;28;45345;-63
2021/09/19 17:23:22;;;;;;;5.18;1.80;;;24.50;47.70;28.50;93805.00;;;;10394347;28;74415;-63
2021/09/19 17:28:23;;;;;;;4.45;1.40;;;24.50;47.70;28.50;93812.00;;;;10377155;28;47015;-62
2021/09/19 17:33:23;;;;;;;3.88;1.40;;;24.50;47.70;28.50;93814.00;;;;10396683;28;45595;-63
2021/09/19 17:38:25;;;;;;;4.68;1.40;;;24.40;47.70;28.50;93811.00;;;;10376945;28;75964;-63
2021/09/19 17:43:26;;;;;;;2.40;1.02;;;24.50;47.70;28.40;93808.00;;;;10394442;28;45464;-63
2021/09/19 17:48:26;;;;;;;2.90;1.20;;;24.40;47.70;28.40;93817.00;;;;10393929;28;46433;-63
2021/09/19 17:53:28;;;;;;;2.83;1.00;;;24.40;47.70;28.40;93831.00;;;;10394651;28;47369;-63
2021/09/19 17:58:29;;;;;;;3.35;1.00;;;24.40;47.70;28.40;93833.00;;;;10394015;28;47204;-63
2021/09/19 18:03:30;;;;;;;2.10;0.90;;;24.40;47.70;28.40;93825.00;;;;10394268;28;46252;-63
2021/09/19 18:08:31;;;;;;;2.38;0.82;;;24.30;47.70;28.40;93830.00;;;;10393462;28;56609;-64
2021/09/19 18:13:32;;;;;;;1.95;0.73;;;24.30;47.70;28.30;93834.00;;;;10376230;28;74448;-63
2021/09/19 18:18:33;;;;;;;1.48;0.70;;;24.30;47.70;28.40;93844.00;;;;10394033;28;45606;-62
2021/09/19 18:23:34;;;;;;;1.50;0.60;;;24.30;47.70;28.30;93835.00;;;;10376537;28;71738;-63
2021/09/19 18:28:39;;;;;;;2.25;0.55;;;24.30;47.70;28.30;93851.00;;;;10370156;22;74548;-67
2021/09/19 18:33:41;;;;;;;1.80;0.50;;;24.30;47.70;28.30;93856.00;;;;10316286;28;45294;-68
2021/09/19 18:38:42;;;;;;;1.27;0.55;;;24.30;47.70;28.30;93847.00;;;;10310935;28;45611;-64
2021/09/19 18:43:45;;;;;;;1.17;0.52;;;24.30;47.70;28.30;93848.00;;;;10294761;28;47239;-64
2021/09/19 18:48:45;;;;;;;1.38;0.40;;;24.30;47.70;28.30;93858.00;;;;10311082;28;74471;-69
2021/09/19 18:53:46;;;;;;;1.35;0.45;;;24.20;47.70;28.30;93853.00;;;;10310064;28;75466;-66
2021/09/19 18:58:47;;;;;;;1.10;0.40;;;24.30;47.70;28.30;93857.00;;;;10308711;28;75568;-65
2021/09/19 19:03:47;;;;;;;0.80;0.30;;;24.20;47.70;28.30;93859.00;;;;10309520;28;75460;-64
2021/09/19 19:08:49;;;;;;;1.05;0.40;;;24.20;47.70;28.30;93861.00;;;;10309820;28;75294;-65
2021/09/19 19:13:49;;;;;;;0.88;0.30;;;24.20;47.70;28.30;93880.00;;;;10312726;28;45625;-64
2021/09/19 19:18:50;;;;;;;0.68;0.30;;;24.20;47.70;28.30;93881.00;;;;10310745;28;58423;-66
2021/09/19 19:23:52;;;;;;;1.00;0.40;;;24.20;47.70;28.30;93880.00;;;;10309267;28;75137;-65
2021/09/19 19:28:53;;;;;;;1.02;0.30;;;24.20;47.70;28.20;93870.00;;;;10293591;28;47082;-65
2021/09/19 19:33:55;;;;;;;0.90;0.40;;;24.20;47.70;28.20;93870.00;;;;10309133;28;74190;-67
2021/09/19 19:38:55;;;;;;;0.43;0.20;;;24.20;47.70;28.20;93871.00;;;;10309119;28;51855;-65
2021/09/19 19:43:56;;;;;;;0.38;0.20;;;24.20;47.70;28.30;93869.00;;;;10309019;28;73650;-65
2021/09/19 19:48:58;;;;;;;0.45;0.30;;;24.20;47.70;28.20;93890.00;;;;10309753;28;73249;-64
2021/09/19 19:53:59;;;;;;;0.73;0.20;;;24.20;47.70;28.20;93879.00;;;;10294312;28;48042;-64
2021/09/19 19:58:59;;;;;;;1.13;0.30;;;24.20;47.70;28.20;93882.00;;;;10309977;28;52972;-67
2021/09/19 20:04:00;;;;;;;0.70;0.20;;;24.20;47.70;28.20;93902.00;;;;10309585;28;74212;-67
2021/09/19 20:09:01;;;;;;;0.60;0.30;;;24.20;47.80;28.20;93889.00;;;;10307685;28;74461;-67
2021/09/19 20:14:02;;;;;;;0.60;0.30;;;24.20;47.70;28.20;93879.00;;;;10291381;28;74472;-64
2021/09/19 20:19:03;;;;;;;0.57;0.20;;;24.20;47.70;28.20;93891.00;;;;10292451;28;52979;-64
2021/09/19 20:24:04;;;;;;;0.40;0.20;;;24.10;47.70;28.20;93891.00;;;;10309472;28;50101;-67
2021/09/19 20:29:05;;;;;;;0.65;0.17;;;24.10;47.70;28.20;93898.00;;;;10308489;28;45527;-64
2021/09/19 20:34:05;;;;;;;0.30;0.17;;;24.10;47.70;28.20;93893.00;;;;10308697;28;75520;-65
2021/09/19 20:39:06;;;;;;;0.20;0.20;;;24.10;47.70;28.20;93891.00;;;;10307938;28;75542;-67
2021/09/19 20:44:07;;;;;;;0.65;0.28;;;24.10;47.70;28.20;93891.00;;;;10308231;28;74367;-64
2021/09/19 20:49:09;;;;;;;0.35;0.10;;;24.10;47.70;28.20;93897.00;;;;10308540;28;45628;-65
2021/09/19 20:54:10;;;;;;;0.22;0.13;;;24.10;47.70;28.10;93898.00;;;;10309825;28;45571;-64
2021/09/19 20:59:11;;;;;;;0.30;0.20;;;24.10;47.70;28.10;93904.00;;;;10309473;28;45309;-67
2021/09/19 21:04:12;;;;;;;0.20;0.10;;;24.10;47.70;28.20;93907.00;;;;10314738;28;74121;-65
2021/09/19 21:09:12;;;;;;;0.30;0.20;;;24.10;47.80;28.10;93904.00;;;;10315397;28;48242;-68
2021/09/19 21:14:13;;;;;;;0.38;0.10;;;24.10;47.80;28.10;93913.00;;;;10316315;28;51970;-65
2021/09/19 21:19:14;;;;;;;0.35;0.10;;;24.10;47.70;28.10;93922.00;;;;10310713;28;46066;-67
2021/09/19 21:24:15;;;;;;;0.10;0.10;;;24.10;47.70;28.10;93910.00;;;;10308875;28;74531;-66
2021/09/19 21:29:16;;;;;;;0.25;0.05;;;24.10;48.40;28.10;93906.00;;;;10313470;28;45399;-66
2021/09/19 21:34:17;;;;;;;0.10;0.10;;;24.10;47.80;28.10;93895.00;;;;10295756;28;75311;-67
2021/09/19 21:39:17;;;;;;;0.52;0.10;;;24.10;47.80;28.10;93892.00;;;;10312705;28;48313;-67
2021/09/19 21:44:18;;;;;;;0.22;0.10;;;24.10;47.70;28.10;93909.00;;;;10313260;28;45420;-64
2021/09/19 21:49:19;;;;;;;0.85;0.20;;;24.10;47.70;28.10;93899.00;;;;10314003;28;45342;-67
2021/09/19 21:54:19;;;;;;;0.10;0.10;;;24.10;47.70;28.10;93909.00;;;;10296360;28;46889;-67
2021/09/19 21:59:20;;;;;;;0.10;0.00;;;24.10;47.80;28.10;93909.00;;;;10295904;28;61784;-67
2021/09/19 22:04:21;;;;;;;0.28;0.10;;;24.10;47.80;28.10;93900.00;;;;10311872;28;74309;-65
2021/09/19 22:09:23;;;;;;;0.10;0.03;;;24.00;47.80;28.10;93909.00;;;;10294514;28;75098;-65